sensor_id;sensor_type;location;lat;lon;timestamp;P1;durP1;ratioP1;P2;durP2;ratioP2
68234;SDS011;55052;52.056;5.296;2024-02-26T00:00:48;8.98;;;5.50;;
68234;SDS011;55052;52.056;5.296;2024-02-26T00:03:15;9.00;;;5.30;;
68234;SDS011;55052;52.056;5.296;2024-02-26T00:05:42;8.00;;;5.18;;
68234;SDS011;55052;52.056;5.296;2024-02-26T00:08:09;8.90;;;4.97;;
68234;SDS011;55052;52.056;5.296;2024-02-26T00:10:36;6.97;;;4.68;;
68234;SDS011;55052;52.056;5.296;2024-02-26T00:13:03;8.60;;;5.13;;
68234;SDS011;55052;52.056;5.296;2024-02-26T00:15:30;7.72;;;5.32;;
68234;SDS011;55052;52.056;5.296;2024-02-26T00:17:57;8.27;;;4.82;;
68234;SDS011;55052;52.056;5.296;2024-02-26T00:20:24;8.75;;;5.15;;
68234;SDS011;55052;52.056;5.296;2024-02-26T00:22:52;7.95;;;4.68;;
68234;SDS011;55052;52.056;5.296;2024-02-26T00:25:18;8.73;;;5.00;;
68234;SDS011;55052;52.056;5.296;2024-02-26T00:27:45;8.45;;;5.00;;
68234;SDS011;55052;52.056;5.296;2024-02-26T00:30:12;11.50;;;5.25;;
68234;SDS011;55052;52.056;5.296;2024-02-26T00:32:39;6.07;;;4.47;;
68234;SDS011;55052;52.056;5.296;2024-02-26T00:35:06;6.20;;;4.57;;
68234;SDS011;55052;52.056;5.296;2024-02-26T00:37:33;9.43;;;4.82;;
68234;SDS011;55052;52.056;5.296;2024-02-26T00:40:00;7.22;;;4.85;;
68234;SDS011;55052;52.056;5.296;2024-02-26T00:42:27;6.80;;;4.50;;
68234;SDS011;55052;52.056;5.296;2024-02-26T00:44:54;7.18;;;4.72;;
68234;SDS011;55052;52.056;5.296;2024-02-26T00:47:21;7.88;;;4.55;;
68234;SDS011;55052;52.056;5.296;2024-02-26T00:49:48;7.07;;;4.80;;
68234;SDS011;55052;52.056;5.296;2024-02-26T00:52:15;8.30;;;5.30;;
68234;SDS011;55052;52.056;5.296;2024-02-26T00:54:41;6.90;;;4.90;;
68234;SDS011;55052;52.056;5.296;2024-02-26T00:57:08;7.32;;;4.90;;
68234;SDS011;55052;52.056;5.296;2024-02-26T00:59:35;7.65;;;4.90;;
68234;SDS011;55052;52.056;5.296;2024-02-26T01:02:02;8.07;;;5.45;;
68234;SDS011;55052;52.056;5.296;2024-02-26T01:04:31;9.00;;;5.20;;
68234;SDS011;55052;52.056;5.296;2024-02-26T01:07:00;8.77;;;5.32;;
68234;SDS011;55052;52.056;5.296;2024-02-26T01:09:27;10.68;;;5.60;;
68234;SDS011;55052;52.056;5.296;2024-02-26T01:11:54;7.78;;;5.13;;
68234;SDS011;55052;52.056;5.296;2024-02-26T01:14:21;7.75;;;5.03;;
68234;SDS011;55052;52.056;5.296;2024-02-26T01:16:47;7.72;;;5.40;;
68234;SDS011;55052;52.056;5.296;2024-02-26T01:19:14;9.80;;;5.40;;
68234;SDS011;55052;52.056;5.296;2024-02-26T01:21:41;7.65;;;5.30;;
68234;SDS011;55052;52.056;5.296;2024-02-26T01:24:08;7.70;;;5.50;;
68234;SDS011;55052;52.056;5.296;2024-02-26T01:26:35;8.00;;;5.47;;
68234;SDS011;55052;52.056;5.296;2024-02-26T01:29:02;7.65;;;5.07;;
68234;SDS011;55052;52.056;5.296;2024-02-26T01:31:29;8.15;;;5.32;;
68234;SDS011;55052;52.056;5.296;2024-02-26T01:33:56;8.73;;;4.88;;
68234;SDS011;55052;52.056;5.296;2024-02-26T01:36:23;11.70;;;5.95;;
68234;SDS011;55052;52.056;5.296;2024-02-26T01:38:49;6.78;;;5.07;;
68234;SDS011;55052;52.056;5.296;2024-02-26T01:41:16;8.15;;;5.72;;
68234;SDS011;55052;52.056;5.296;2024-02-26T01:43:43;8.95;;;5.18;;
68234;SDS011;55052;52.056;5.296;2024-02-26T01:46:11;7.72;;;5.00;;
68234;SDS011;55052;52.056;5.296;2024-02-26T01:48:40;8.50;;;5.50;;
68234;SDS011;55052;52.056;5.296;2024-02-26T01:51:09;7.30;;;4.78;;
68234;SDS011;55052;52.056;5.296;2024-02-26T01:53:37;7.55;;;5.40;;
68234;SDS011;55052;52.056;5.296;2024-02-26T01:56:04;8.25;;;5.97;;
68234;SDS011;55052;52.056;5.296;2024-02-26T01:58:31;7.70;;;5.20;;
68234;SDS011;55052;52.056;5.296;2024-02-26T02:00:58;10.77;;;6.55;;
68234;SDS011;55052;52.056;5.296;2024-02-26T02:03:27;8.68;;;5.50;;
68234;SDS011;55052;52.056;5.296;2024-02-26T02:05:57;12.23;;;5.85;;
68234;SDS011;55052;52.056;5.296;2024-02-26T02:08:23;7.70;;;5.63;;
68234;SDS011;55052;52.056;5.296;2024-02-26T02:10:51;9.57;;;7.05;;
68234;SDS011;55052;52.056;5.296;2024-02-26T02:13:18;8.32;;;5.50;;
68234;SDS011;55052;52.056;5.296;2024-02-26T02:15:44;11.13;;;5.47;;
68234;SDS011;55052;52.056;5.296;2024-02-26T02:18:11;9.77;;;5.60;;
68234;SDS011;55052;52.056;5.296;2024-02-26T02:20:38;9.02;;;6.00;;
68234;SDS011;55052;52.056;5.296;2024-02-26T02:23:05;10.18;;;6.32;;
68234;SDS011;55052;52.056;5.296;2024-02-26T02:25:32;9.20;;;5.85;;
68234;SDS011;55052;52.056;5.296;2024-02-26T02:27:59;8.75;;;5.90;;
68234;SDS011;55052;52.056;5.296;2024-02-26T02:30:27;9.27;;;5.80;;
68234;SDS011;55052;52.056;5.296;2024-02-26T02:32:55;12.83;;;7.07;;
68234;SDS011;55052;52.056;5.296;2024-02-26T02:35:25;10.07;;;6.13;;
68234;SDS011;55052;52.056;5.296;2024-02-26T02:37:52;8.52;;;5.90;;
68234;SDS011;55052;52.056;5.296;2024-02-26T02:40:19;8.75;;;6.32;;
68234;SDS011;55052;52.056;5.296;2024-02-26T02:42:46;9.07;;;6.70;;
68234;SDS011;55052;52.056;5.296;2024-02-26T02:45:12;9.13;;;6.68;;
68234;SDS011;55052;52.056;5.296;2024-02-26T02:47:39;9.30;;;6.00;;
68234;SDS011;55052;52.056;5.296;2024-02-26T02:50:06;9.63;;;6.35;;
68234;SDS011;55052;52.056;5.296;2024-02-26T02:52:33;9.70;;;6.28;;
68234;SDS011;55052;52.056;5.296;2024-02-26T02:55:00;9.75;;;6.38;;
68234;SDS011;55052;52.056;5.296;2024-02-26T02:57:27;9.68;;;6.05;;
68234;SDS011;55052;52.056;5.296;2024-02-26T02:59:55;9.77;;;6.80;;
68234;SDS011;55052;52.056;5.296;2024-02-26T03:02:22;10.27;;;6.72;;
68234;SDS011;55052;52.056;5.296;2024-02-26T03:04:51;10.93;;;6.38;;
68234;SDS011;55052;52.056;5.296;2024-02-26T03:07:18;9.63;;;6.05;;
68234;SDS011;55052;52.056;5.296;2024-02-26T03:09:45;11.15;;;6.55;;
68234;SDS011;55052;52.056;5.296;2024-02-26T03:12:11;9.43;;;6.45;;
68234;SDS011;55052;52.056;5.296;2024-02-26T03:14:38;9.05;;;6.45;;
68234;SDS011;55052;52.056;5.296;2024-02-26T03:17:05;9.82;;;5.93;;
68234;SDS011;55052;52.056;5.296;2024-02-26T03:19:32;10.52;;;6.55;;
68234;SDS011;55052;52.056;5.296;2024-02-26T03:21:59;11.20;;;6.47;;
68234;SDS011;55052;52.056;5.296;2024-02-26T03:24:26;8.50;;;6.10;;
68234;SDS011;55052;52.056;5.296;2024-02-26T03:26:53;10.68;;;6.43;;
68234;SDS011;55052;52.056;5.296;2024-02-26T03:29:20;9.00;;;6.28;;
68234;SDS011;55052;52.056;5.296;2024-02-26T03:31:46;9.13;;;6.15;;
68234;SDS011;55052;52.056;5.296;2024-02-26T03:34:13;9.63;;;6.43;;
68234;SDS011;55052;52.056;5.296;2024-02-26T03:36:41;8.50;;;6.07;;
68234;SDS011;55052;52.056;5.296;2024-02-26T03:39:08;9.07;;;6.47;;
68234;SDS011;55052;52.056;5.296;2024-02-26T03:41:36;11.05;;;6.47;;
68234;SDS011;55052;52.056;5.296;2024-02-26T03:44:03;10.95;;;6.78;;
68234;SDS011;55052;52.056;5.296;2024-02-26T03:46:30;12.48;;;6.47;;
68234;SDS011;55052;52.056;5.296;2024-02-26T03:48:57;9.07;;;6.43;;
68234;SDS011;55052;52.056;5.296;2024-02-26T03:51:24;9.45;;;6.30;;
68234;SDS011;55052;52.056;5.296;2024-02-26T03:53:50;10.15;;;6.55;;
68234;SDS011;55052;52.056;5.296;2024-02-26T03:56:17;10.88;;;7.03;;
68234;SDS011;55052;52.056;5.296;2024-02-26T03:58:44;9.80;;;6.38;;
68234;SDS011;55052;52.056;5.296;2024-02-26T04:01:11;10.23;;;6.63;;
68234;SDS011;55052;52.056;5.296;2024-02-26T04:03:38;11.48;;;6.68;;
68234;SDS011;55052;52.056;5.296;2024-02-26T04:06:04;10.75;;;6.93;;
68234;SDS011;55052;52.056;5.296;2024-02-26T04:08:34;10.95;;;7.50;;
68234;SDS011;55052;52.056;5.296;2024-02-26T04:11:01;10.13;;;7.00;;
68234;SDS011;55052;52.056;5.296;2024-02-26T04:13:33;9.98;;;7.00;;
68234;SDS011;55052;52.056;5.296;2024-02-26T04:16:00;11.63;;;7.35;;
68234;SDS011;55052;52.056;5.296;2024-02-26T04:18:28;12.15;;;6.70;;
68234;SDS011;55052;52.056;5.296;2024-02-26T04:20:55;12.52;;;7.28;;
68234;SDS011;55052;52.056;5.296;2024-02-26T04:23:23;10.55;;;6.72;;
68234;SDS011;55052;52.056;5.296;2024-02-26T04:25:50;12.52;;;7.90;;
68234;SDS011;55052;52.056;5.296;2024-02-26T04:28:19;13.95;;;7.53;;
68234;SDS011;55052;52.056;5.296;2024-02-26T04:30:52;12.38;;;8.05;;
68234;SDS011;55052;52.056;5.296;2024-02-26T04:33:19;13.60;;;7.72;;
68234;SDS011;55052;52.056;5.296;2024-02-26T04:35:46;11.90;;;7.50;;
68234;SDS011;55052;52.056;5.296;2024-02-26T04:38:13;10.80;;;7.40;;
68234;SDS011;55052;52.056;5.296;2024-02-26T04:40:39;9.52;;;6.75;;
68234;SDS011;55052;52.056;5.296;2024-02-26T04:43:06;14.05;;;7.85;;
68234;SDS011;55052;52.056;5.296;2024-02-26T04:45:33;12.05;;;7.40;;
68234;SDS011;55052;52.056;5.296;2024-02-26T04:48:00;12.43;;;7.90;;
68234;SDS011;55052;52.056;5.296;2024-02-26T04:50:27;11.73;;;7.57;;
68234;SDS011;55052;52.056;5.296;2024-02-26T04:52:54;10.48;;;7.28;;
68234;SDS011;55052;52.056;5.296;2024-02-26T04:55:21;11.23;;;7.57;;
68234;SDS011;55052;52.056;5.296;2024-02-26T04:57:47;10.75;;;6.97;;
68234;SDS011;55052;52.056;5.296;2024-02-26T05:00:14;10.60;;;7.18;;
68234;SDS011;55052;52.056;5.296;2024-02-26T05:02:41;11.77;;;7.85;;
68234;SDS011;55052;52.056;5.296;2024-02-26T05:05:08;13.38;;;7.55;;
68234;SDS011;55052;52.056;5.296;2024-02-26T05:07:39;10.73;;;6.65;;
68234;SDS011;55052;52.056;5.296;2024-02-26T05:10:07;10.50;;;7.05;;
68234;SDS011;55052;52.056;5.296;2024-02-26T05:12:34;12.25;;;7.07;;
68234;SDS011;55052;52.056;5.296;2024-02-26T05:15:02;11.13;;;7.50;;
68234;SDS011;55052;52.056;5.296;2024-02-26T05:17:29;10.65;;;7.13;;
68234;SDS011;55052;52.056;5.296;2024-02-26T05:19:56;10.55;;;6.70;;
68234;SDS011;55052;52.056;5.296;2024-02-26T05:22:23;11.65;;;6.85;;
68234;SDS011;55052;52.056;5.296;2024-02-26T05:24:50;10.40;;;6.20;;
68234;SDS011;55052;52.056;5.296;2024-02-26T05:27:17;11.07;;;6.93;;
68234;SDS011;55052;52.056;5.296;2024-02-26T05:29:44;11.30;;;6.57;;
68234;SDS011;55052;52.056;5.296;2024-02-26T05:32:11;9.32;;;6.78;;
68234;SDS011;55052;52.056;5.296;2024-02-26T05:34:38;10.50;;;6.30;;
68234;SDS011;55052;52.056;5.296;2024-02-26T05:37:07;15.90;;;6.28;;
68234;SDS011;55052;52.056;5.296;2024-02-26T05:39:34;9.73;;;6.35;;
68234;SDS011;55052;52.056;5.296;2024-02-26T05:42:01;9.23;;;6.22;;
68234;SDS011;55052;52.056;5.296;2024-02-26T05:44:28;10.55;;;6.85;;
68234;SDS011;55052;52.056;5.296;2024-02-26T05:46:55;11.18;;;7.07;;
68234;SDS011;55052;52.056;5.296;2024-02-26T05:49:22;10.20;;;6.97;;
68234;SDS011;55052;52.056;5.296;2024-02-26T05:51:49;11.27;;;6.72;;
68234;SDS011;55052;52.056;5.296;2024-02-26T05:54:16;12.32;;;7.43;;
68234;SDS011;55052;52.056;5.296;2024-02-26T05:56:43;9.85;;;6.82;;
68234;SDS011;55052;52.056;5.296;2024-02-26T05:59:10;11.75;;;6.90;;
68234;SDS011;55052;52.056;5.296;2024-02-26T06:01:36;10.10;;;6.65;;
68234;SDS011;55052;52.056;5.296;2024-02-26T06:04:03;9.93;;;6.70;;
68234;SDS011;55052;52.056;5.296;2024-02-26T06:06:30;12.15;;;7.03;;
68234;SDS011;55052;52.056;5.296;2024-02-26T06:08:57;11.38;;;7.47;;
68234;SDS011;55052;52.056;5.296;2024-02-26T06:11:24;11.48;;;7.75;;
68234;SDS011;55052;52.056;5.296;2024-02-26T06:13:51;11.63;;;7.47;;
68234;SDS011;55052;52.056;5.296;2024-02-26T06:16:18;13.55;;;8.15;;
68234;SDS011;55052;52.056;5.296;2024-02-26T06:18:44;12.80;;;7.80;;
68234;SDS011;55052;52.056;5.296;2024-02-26T06:21:11;12.77;;;8.05;;
68234;SDS011;55052;52.056;5.296;2024-02-26T06:23:38;11.18;;;7.65;;
68234;SDS011;55052;52.056;5.296;2024-02-26T06:26:06;12.93;;;8.13;;
68234;SDS011;55052;52.056;5.296;2024-02-26T06:28:33;14.40;;;8.25;;
68234;SDS011;55052;52.056;5.296;2024-02-26T06:31:02;12.60;;;7.82;;
68234;SDS011;55052;52.056;5.296;2024-02-26T06:33:29;13.45;;;8.52;;
68234;SDS011;55052;52.056;5.296;2024-02-26T06:35:56;13.05;;;8.15;;
68234;SDS011;55052;52.056;5.296;2024-02-26T06:38:22;13.60;;;8.23;;
68234;SDS011;55052;52.056;5.296;2024-02-26T06:40:49;14.35;;;8.23;;
68234;SDS011;55052;52.056;5.296;2024-02-26T06:43:16;15.23;;;8.57;;
68234;SDS011;55052;52.056;5.296;2024-02-26T06:45:43;12.63;;;8.20;;
68234;SDS011;55052;52.056;5.296;2024-02-26T06:48:10;13.30;;;8.50;;
68234;SDS011;55052;52.056;5.296;2024-02-26T06:50:37;13.32;;;8.20;;
68234;SDS011;55052;52.056;5.296;2024-02-26T06:53:04;17.83;;;8.38;;
68234;SDS011;55052;52.056;5.296;2024-02-26T06:55:31;13.38;;;7.90;;
68234;SDS011;55052;52.056;5.296;2024-02-26T06:57:58;15.90;;;9.25;;
68234;SDS011;55052;52.056;5.296;2024-02-26T07:00:25;13.40;;;8.27;;
68234;SDS011;55052;52.056;5.296;2024-02-26T07:02:52;15.63;;;8.95;;
68234;SDS011;55052;52.056;5.296;2024-02-26T07:05:18;15.95;;;8.63;;
68234;SDS011;55052;52.056;5.296;2024-02-26T07:07:45;14.75;;;8.63;;
68234;SDS011;55052;52.056;5.296;2024-02-26T07:10:12;13.75;;;8.32;;
68234;SDS011;55052;52.056;5.296;2024-02-26T07:12:39;16.70;;;9.88;;
68234;SDS011;55052;52.056;5.296;2024-02-26T07:15:06;15.02;;;8.77;;
68234;SDS011;55052;52.056;5.296;2024-02-26T07:17:34;17.20;;;10.13;;
68234;SDS011;55052;52.056;5.296;2024-02-26T07:20:02;16.98;;;9.52;;
68234;SDS011;55052;52.056;5.296;2024-02-26T07:22:35;16.67;;;9.10;;
68234;SDS011;55052;52.056;5.296;2024-02-26T07:25:02;19.88;;;10.32;;
68234;SDS011;55052;52.056;5.296;2024-02-26T07:27:29;17.58;;;9.85;;
68234;SDS011;55052;52.056;5.296;2024-02-26T07:29:56;17.23;;;9.55;;
68234;SDS011;55052;52.056;5.296;2024-02-26T07:32:23;18.83;;;10.07;;
68234;SDS011;55052;52.056;5.296;2024-02-26T07:34:50;17.65;;;10.82;;
68234;SDS011;55052;52.056;5.296;2024-02-26T07:37:17;17.35;;;10.20;;
68234;SDS011;55052;52.056;5.296;2024-02-26T07:39:44;23.08;;;10.15;;
68234;SDS011;55052;52.056;5.296;2024-02-26T07:42:11;20.92;;;11.63;;
68234;SDS011;55052;52.056;5.296;2024-02-26T07:44:38;20.35;;;10.98;;
68234;SDS011;55052;52.056;5.296;2024-02-26T07:47:04;21.83;;;11.50;;
68234;SDS011;55052;52.056;5.296;2024-02-26T07:49:31;18.52;;;11.15;;
68234;SDS011;55052;52.056;5.296;2024-02-26T07:52:01;20.63;;;11.43;;
68234;SDS011;55052;52.056;5.296;2024-02-26T07:54:28;21.27;;;10.77;;
68234;SDS011;55052;52.056;5.296;2024-02-26T07:56:55;22.58;;;12.23;;
68234;SDS011;55052;52.056;5.296;2024-02-26T07:59:22;21.30;;;11.52;;
68234;SDS011;55052;52.056;5.296;2024-02-26T08:01:50;24.65;;;13.10;;
68234;SDS011;55052;52.056;5.296;2024-02-26T08:04:23;25.33;;;13.23;;
68234;SDS011;55052;52.056;5.296;2024-02-26T08:06:50;23.40;;;13.18;;
68234;SDS011;55052;52.056;5.296;2024-02-26T08:09:17;23.38;;;13.02;;
68234;SDS011;55052;52.056;5.296;2024-02-26T08:11:44;25.35;;;14.32;;
68234;SDS011;55052;52.056;5.296;2024-02-26T08:14:11;24.58;;;13.02;;
68234;SDS011;55052;52.056;5.296;2024-02-26T08:16:38;24.42;;;14.25;;
68234;SDS011;55052;52.056;5.296;2024-02-26T08:19:04;26.50;;;13.85;;
68234;SDS011;55052;52.056;5.296;2024-02-26T08:21:31;21.08;;;12.00;;
68234;SDS011;55052;52.056;5.296;2024-02-26T08:23:58;22.00;;;13.30;;
68234;SDS011;55052;52.056;5.296;2024-02-26T08:26:25;24.75;;;13.60;;
68234;SDS011;55052;52.056;5.296;2024-02-26T08:28:52;22.73;;;13.18;;
68234;SDS011;55052;52.056;5.296;2024-02-26T08:31:20;28.77;;;14.98;;
68234;SDS011;55052;52.056;5.296;2024-02-26T08:33:49;22.50;;;13.73;;
68234;SDS011;55052;52.056;5.296;2024-02-26T08:36:16;25.55;;;14.20;;
68234;SDS011;55052;52.056;5.296;2024-02-26T08:38:43;24.20;;;13.93;;
68234;SDS011;55052;52.056;5.296;2024-02-26T08:41:10;22.83;;;13.52;;
68234;SDS011;55052;52.056;5.296;2024-02-26T08:43:37;24.80;;;13.57;;
68234;SDS011;55052;52.056;5.296;2024-02-26T08:46:04;21.42;;;12.40;;
68234;SDS011;55052;52.056;5.296;2024-02-26T08:48:34;21.70;;;12.93;;
68234;SDS011;55052;52.056;5.296;2024-02-26T08:51:04;21.73;;;12.68;;
68234;SDS011;55052;52.056;5.296;2024-02-26T08:53:32;18.20;;;11.20;;
68234;SDS011;55052;52.056;5.296;2024-02-26T08:56:08;18.88;;;11.30;;
68234;SDS011;55052;52.056;5.296;2024-02-26T08:58:35;17.60;;;11.07;;
68234;SDS011;55052;52.056;5.296;2024-02-26T09:01:02;16.02;;;10.48;;
68234;SDS011;55052;52.056;5.296;2024-02-26T09:03:29;18.63;;;10.85;;
68234;SDS011;55052;52.056;5.296;2024-02-26T09:05:56;19.77;;;10.60;;
68234;SDS011;55052;52.056;5.296;2024-02-26T09:08:24;16.33;;;9.52;;
68234;SDS011;55052;52.056;5.296;2024-02-26T09:10:51;15.90;;;9.73;;
68234;SDS011;55052;52.056;5.296;2024-02-26T09:13:18;16.67;;;10.07;;
68234;SDS011;55052;52.056;5.296;2024-02-26T09:15:46;14.95;;;9.85;;
68234;SDS011;55052;52.056;5.296;2024-02-26T09:18:12;13.80;;;9.20;;
68234;SDS011;55052;52.056;5.296;2024-02-26T09:20:41;15.27;;;8.93;;
68234;SDS011;55052;52.056;5.296;2024-02-26T09:23:08;13.20;;;8.63;;
68234;SDS011;55052;52.056;5.296;2024-02-26T09:25:35;13.77;;;8.75;;
68234;SDS011;55052;52.056;5.296;2024-02-26T09:28:02;14.88;;;9.30;;
68234;SDS011;55052;52.056;5.296;2024-02-26T09:30:29;16.30;;;8.35;;
68234;SDS011;55052;52.056;5.296;2024-02-26T09:32:56;13.27;;;8.75;;
68234;SDS011;55052;52.056;5.296;2024-02-26T09:35:23;13.57;;;8.32;;
68234;SDS011;55052;52.056;5.296;2024-02-26T09:37:50;13.90;;;8.45;;
68234;SDS011;55052;52.056;5.296;2024-02-26T09:40:17;14.52;;;8.77;;
68234;SDS011;55052;52.056;5.296;2024-02-26T09:42:45;13.55;;;8.00;;
68234;SDS011;55052;52.056;5.296;2024-02-26T09:45:16;14.35;;;8.70;;
68234;SDS011;55052;52.056;5.296;2024-02-26T09:47:45;12.88;;;7.97;;
68234;SDS011;55052;52.056;5.296;2024-02-26T09:50:16;12.32;;;7.93;;
68234;SDS011;55052;52.056;5.296;2024-02-26T09:52:44;13.70;;;8.10;;
68234;SDS011;55052;52.056;5.296;2024-02-26T09:55:11;14.50;;;7.97;;
68234;SDS011;55052;52.056;5.296;2024-02-26T09:57:38;14.23;;;8.57;;
68234;SDS011;55052;52.056;5.296;2024-02-26T10:00:20;10.70;;;6.75;;
68234;SDS011;55052;52.056;5.296;2024-02-26T10:02:49;13.40;;;7.35;;
68234;SDS011;55052;52.056;5.296;2024-02-26T10:05:17;13.85;;;7.78;;
68234;SDS011;55052;52.056;5.296;2024-02-26T10:07:48;11.23;;;7.20;;
68234;SDS011;55052;52.056;5.296;2024-02-26T10:10:17;11.57;;;7.40;;
68234;SDS011;55052;52.056;5.296;2024-02-26T10:12:44;12.77;;;7.32;;
68234;SDS011;55052;52.056;5.296;2024-02-26T10:15:11;12.25;;;7.07;;
68234;SDS011;55052;52.056;5.296;2024-02-26T10:17:38;11.63;;;6.65;;
68234;SDS011;55052;52.056;5.296;2024-02-26T10:20:12;12.38;;;7.18;;
68234;SDS011;55052;52.056;5.296;2024-02-26T10:22:44;11.80;;;7.45;;
68234;SDS011;55052;52.056;5.296;2024-02-26T10:25:11;11.65;;;7.32;;
68234;SDS011;55052;52.056;5.296;2024-02-26T10:27:40;10.25;;;6.53;;
68234;SDS011;55052;52.056;5.296;2024-02-26T10:30:17;12.65;;;6.80;;
68234;SDS011;55052;52.056;5.296;2024-02-26T10:32:46;11.35;;;7.05;;
68234;SDS011;55052;52.056;5.296;2024-02-26T10:35:15;11.85;;;7.00;;
68234;SDS011;55052;52.056;5.296;2024-02-26T10:37:44;10.75;;;6.63;;
68234;SDS011;55052;52.056;5.296;2024-02-26T10:40:11;13.13;;;6.72;;
68234;SDS011;55052;52.056;5.296;2024-02-26T10:42:39;12.00;;;6.65;;
68234;SDS011;55052;52.056;5.296;2024-02-26T10:45:07;10.15;;;6.88;;
68234;SDS011;55052;52.056;5.296;2024-02-26T10:47:36;12.27;;;7.03;;
68234;SDS011;55052;52.056;5.296;2024-02-26T10:50:03;11.00;;;7.38;;
68234;SDS011;55052;52.056;5.296;2024-02-26T10:52:33;12.80;;;7.18;;
68234;SDS011;55052;52.056;5.296;2024-02-26T10:55:02;10.70;;;6.70;;
68234;SDS011;55052;52.056;5.296;2024-02-26T10:57:39;12.30;;;7.18;;
68234;SDS011;55052;52.056;5.296;2024-02-26T11:00:07;12.00;;;7.15;;
68234;SDS011;55052;52.056;5.296;2024-02-26T11:02:39;11.27;;;7.03;;
68234;SDS011;55052;52.056;5.296;2024-02-26T11:05:07;12.27;;;7.57;;
68234;SDS011;55052;52.056;5.296;2024-02-26T11:07:34;11.63;;;6.95;;
68234;SDS011;55052;52.056;5.296;2024-02-26T11:10:05;14.45;;;6.90;;
68234;SDS011;55052;52.056;5.296;2024-02-26T11:15:03;11.13;;;6.70;;
68234;SDS011;55052;52.056;5.296;2024-02-26T11:17:30;10.75;;;6.28;;
68234;SDS011;55052;52.056;5.296;2024-02-26T11:19:59;11.60;;;7.35;;
68234;SDS011;55052;52.056;5.296;2024-02-26T11:22:28;11.52;;;7.10;;
68234;SDS011;55052;52.056;5.296;2024-02-26T11:24:55;11.60;;;7.35;;
68234;SDS011;55052;52.056;5.296;2024-02-26T11:27:25;12.10;;;6.95;;
68234;SDS011;55052;52.056;5.296;2024-02-26T11:30:01;11.68;;;6.45;;
68234;SDS011;55052;52.056;5.296;2024-02-26T11:32:31;11.07;;;6.90;;
68234;SDS011;55052;52.056;5.296;2024-02-26T11:35:01;11.45;;;6.82;;
68234;SDS011;55052;52.056;5.296;2024-02-26T11:37:30;11.57;;;6.65;;
68234;SDS011;55052;52.056;5.296;2024-02-26T11:40:03;11.55;;;6.97;;
68234;SDS011;55052;52.056;5.296;2024-02-26T11:42:30;10.43;;;6.68;;
68234;SDS011;55052;52.056;5.296;2024-02-26T11:44:59;11.85;;;6.65;;
68234;SDS011;55052;52.056;5.296;2024-02-26T11:47:27;12.02;;;6.85;;
68234;SDS011;55052;52.056;5.296;2024-02-26T11:49:54;12.70;;;7.47;;
68234;SDS011;55052;52.056;5.296;2024-02-26T11:52:21;11.43;;;6.65;;
68234;SDS011;55052;52.056;5.296;2024-02-26T11:54:49;10.73;;;6.53;;
68234;SDS011;55052;52.056;5.296;2024-02-26T11:57:28;10.65;;;6.85;;
68234;SDS011;55052;52.056;5.296;2024-02-26T12:00:10;12.93;;;6.50;;
68234;SDS011;55052;52.056;5.296;2024-02-26T12:05:25;11.10;;;7.22;;
68234;SDS011;55052;52.056;5.296;2024-02-26T12:10:28;12.57;;;7.30;;
68234;SDS011;55052;52.056;5.296;2024-02-26T12:13:02;13.52;;;7.75;;
68234;SDS011;55052;52.056;5.296;2024-02-26T12:15:34;12.60;;;7.57;;
68234;SDS011;55052;52.056;5.296;2024-02-26T12:20:32;10.48;;;6.63;;
68234;SDS011;55052;52.056;5.296;2024-02-26T12:22:59;12.60;;;7.38;;
68234;SDS011;55052;52.056;5.296;2024-02-26T12:25:26;12.63;;;7.20;;
68234;SDS011;55052;52.056;5.296;2024-02-26T12:27:56;11.73;;;7.53;;
68234;SDS011;55052;52.056;5.296;2024-02-26T12:30:23;12.50;;;7.43;;
68234;SDS011;55052;52.056;5.296;2024-02-26T12:32:52;11.13;;;7.18;;
68234;SDS011;55052;52.056;5.296;2024-02-26T12:35:24;10.60;;;6.75;;
68234;SDS011;55052;52.056;5.296;2024-02-26T12:37:51;12.82;;;7.60;;
68234;SDS011;55052;52.056;5.296;2024-02-26T12:40:21;12.32;;;7.57;;
68234;SDS011;55052;52.056;5.296;2024-02-26T12:42:48;12.45;;;7.00;;
68234;SDS011;55052;52.056;5.296;2024-02-26T12:45:15;10.30;;;6.50;;
68234;SDS011;55052;52.056;5.296;2024-02-26T12:47:43;10.27;;;6.47;;
68234;SDS011;55052;52.056;5.296;2024-02-26T12:50:15;10.35;;;6.82;;
68234;SDS011;55052;52.056;5.296;2024-02-26T12:52:43;12.13;;;6.68;;
68234;SDS011;55052;52.056;5.296;2024-02-26T12:55:14;11.48;;;6.60;;
68234;SDS011;55052;52.056;5.296;2024-02-26T12:57:43;13.55;;;7.10;;
68234;SDS011;55052;52.056;5.296;2024-02-26T13:00:12;11.80;;;6.22;;
68234;SDS011;55052;52.056;5.296;2024-02-26T13:02:42;11.57;;;6.95;;
68234;SDS011;55052;52.056;5.296;2024-02-26T13:05:11;11.88;;;7.00;;
68234;SDS011;55052;52.056;5.296;2024-02-26T13:07:41;12.30;;;7.65;;
68234;SDS011;55052;52.056;5.296;2024-02-26T13:10:09;13.60;;;7.35;;
68234;SDS011;55052;52.056;5.296;2024-02-26T13:12:42;10.77;;;6.75;;
68234;SDS011;55052;52.056;5.296;2024-02-26T13:15:20;12.18;;;6.70;;
68234;SDS011;55052;52.056;5.296;2024-02-26T13:17:48;12.43;;;7.10;;
68234;SDS011;55052;52.056;5.296;2024-02-26T13:20:26;11.68;;;6.85;;
68234;SDS011;55052;52.056;5.296;2024-02-26T13:23:04;13.15;;;7.00;;
68234;SDS011;55052;52.056;5.296;2024-02-26T13:25:33;12.13;;;6.90;;
68234;SDS011;55052;52.056;5.296;2024-02-26T13:28:15;10.40;;;7.05;;
68234;SDS011;55052;52.056;5.296;2024-02-26T13:33:22;10.90;;;6.95;;
68234;SDS011;55052;52.056;5.296;2024-02-26T13:35:51;10.98;;;7.10;;
68234;SDS011;55052;52.056;5.296;2024-02-26T13:38:19;10.25;;;6.45;;
68234;SDS011;55052;52.056;5.296;2024-02-26T13:40:46;9.75;;;6.32;;
68234;SDS011;55052;52.056;5.296;2024-02-26T13:43:12;10.55;;;6.53;;
68234;SDS011;55052;52.056;5.296;2024-02-26T13:45:39;13.13;;;7.05;;
68234;SDS011;55052;52.056;5.296;2024-02-26T13:48:10;10.90;;;7.10;;
68234;SDS011;55052;52.056;5.296;2024-02-26T13:50:38;10.35;;;6.22;;
68234;SDS011;55052;52.056;5.296;2024-02-26T13:53:06;12.38;;;6.72;;
68234;SDS011;55052;52.056;5.296;2024-02-26T13:55:33;11.43;;;6.57;;
68234;SDS011;55052;52.056;5.296;2024-02-26T13:58:00;11.75;;;6.78;;
68234;SDS011;55052;52.056;5.296;2024-02-26T14:00:28;9.93;;;6.10;;
68234;SDS011;55052;52.056;5.296;2024-02-26T14:02:58;11.63;;;6.90;;
68234;SDS011;55052;52.056;5.296;2024-02-26T14:05:25;11.88;;;6.38;;
68234;SDS011;55052;52.056;5.296;2024-02-26T14:07:52;10.88;;;6.57;;
68234;SDS011;55052;52.056;5.296;2024-02-26T14:10:21;10.68;;;6.32;;
68234;SDS011;55052;52.056;5.296;2024-02-26T14:12:48;11.73;;;6.60;;
68234;SDS011;55052;52.056;5.296;2024-02-26T14:15:15;11.25;;;6.18;;
68234;SDS011;55052;52.056;5.296;2024-02-26T14:17:42;9.52;;;6.15;;
68234;SDS011;55052;52.056;5.296;2024-02-26T14:20:10;9.57;;;5.82;;
68234;SDS011;55052;52.056;5.296;2024-02-26T14:22:37;8.05;;;5.00;;
68234;SDS011;55052;52.056;5.296;2024-02-26T14:25:04;9.68;;;6.03;;
68234;SDS011;55052;52.056;5.296;2024-02-26T14:27:31;10.40;;;6.00;;
68234;SDS011;55052;52.056;5.296;2024-02-26T14:29:58;10.05;;;5.40;;
68234;SDS011;55052;52.056;5.296;2024-02-26T14:32:25;8.70;;;4.88;;
68234;SDS011;55052;52.056;5.296;2024-02-26T14:34:52;8.18;;;4.97;;
68234;SDS011;55052;52.056;5.296;2024-02-26T14:37:19;8.07;;;5.38;;
68234;SDS011;55052;52.056;5.296;2024-02-26T14:39:46;9.18;;;5.13;;
68234;SDS011;55052;52.056;5.296;2024-02-26T14:42:14;6.95;;;4.57;;
68234;SDS011;55052;52.056;5.296;2024-02-26T14:44:44;8.32;;;5.15;;
68234;SDS011;55052;52.056;5.296;2024-02-26T14:47:12;12.25;;;5.63;;
68234;SDS011;55052;52.056;5.296;2024-02-26T14:49:40;12.02;;;5.30;;
68234;SDS011;55052;52.056;5.296;2024-02-26T14:52:07;7.90;;;4.70;;